sensor_id;sensor_type;location;lat;lon;timestamp;P1;durP1;ratioP1;P2;durP2;ratioP2
76351;SDS011;65179;47.786;19.138;2023-04-01T00:01:27;4.28;;;1.35;;
76351;SDS011;65179;47.786;19.138;2023-04-01T00:03:53;4.27;;;1.20;;
76351;SDS011;65179;47.786;19.138;2023-04-01T00:06:19;4.12;;;1.20;;
76351;SDS011;65179;47.786;19.138;2023-04-01T00:08:45;4.00;;;1.33;;
76351;SDS011;65179;47.786;19.138;2023-04-01T00:11:11;4.03;;;1.30;;
76351;SDS011;65179;47.786;19.138;2023-04-01T00:13:36;3.80;;;1.30;;
76351;SDS011;65179;47.786;19.138;2023-04-01T00:16:02;5.15;;;1.23;;
76351;SDS011;65179;47.786;19.138;2023-04-01T00:18:29;5.87;;;1.40;;
76351;SDS011;65179;47.786;19.138;2023-04-01T00:20:55;5.15;;;1.50;;
76351;SDS011;65179;47.786;19.138;2023-04-01T00:23:20;4.37;;;1.40;;
76351;SDS011;65179;47.786;19.138;2023-04-01T00:25:46;4.82;;;1.27;;
76351;SDS011;65179;47.786;19.138;2023-04-01T00:28:13;4.47;;;1.30;;
76351;SDS011;65179;47.786;19.138;2023-04-01T00:30:40;5.32;;;1.10;;
76351;SDS011;65179;47.786;19.138;2023-04-01T00:33:05;4.43;;;1.30;;
76351;SDS011;65179;47.786;19.138;2023-04-01T00:35:31;4.70;;;1.37;;
76351;SDS011;65179;47.786;19.138;2023-04-01T00:37:57;3.22;;;1.10;;
76351;SDS011;65179;47.786;19.138;2023-04-01T00:40:28;3.75;;;1.10;;
76351;SDS011;65179;47.786;19.138;2023-04-01T00:42:54;4.45;;;1.30;;
76351;SDS011;65179;47.786;19.138;2023-04-01T00:45:38;3.87;;;1.30;;
76351;SDS011;65179;47.786;19.138;2023-04-01T00:51:07;4.12;;;1.20;;
76351;SDS011;65179;47.786;19.138;2023-04-01T00:53:45;3.60;;;1.35;;
76351;SDS011;65179;47.786;19.138;2023-04-01T00:56:24;4.10;;;1.20;;
76351;SDS011;65179;47.786;19.138;2023-04-01T00:58:57;2.85;;;0.90;;
76351;SDS011;65179;47.786;19.138;2023-04-01T01:01:25;3.72;;;1.20;;
76351;SDS011;65179;47.786;19.138;2023-04-01T01:03:52;3.47;;;1.12;;
76351;SDS011;65179;47.786;19.138;2023-04-01T01:14:27;3.60;;;1.10;;
76351;SDS011;65179;47.786;19.138;2023-04-01T01:16:53;4.20;;;1.27;;
76351;SDS011;65179;47.786;19.138;2023-04-01T01:25:16;4.55;;;1.00;;
76351;SDS011;65179;47.786;19.138;2023-04-01T01:30:42;5.10;;;1.23;;
76351;SDS011;65179;47.786;19.138;2023-04-01T01:33:22;3.55;;;1.27;;
76351;SDS011;65179;47.786;19.138;2023-04-01T01:35:56;4.20;;;1.10;;
76351;SDS011;65179;47.786;19.138;2023-04-01T01:38:26;4.12;;;1.52;;
76351;SDS011;65179;47.786;19.138;2023-04-01T01:40:56;5.07;;;1.20;;
76351;SDS011;65179;47.786;19.138;2023-04-01T01:43:30;3.65;;;1.20;;
76351;SDS011;65179;47.786;19.138;2023-04-01T01:46:01;3.25;;;0.90;;
76351;SDS011;65179;47.786;19.138;2023-04-01T01:48:31;3.85;;;1.17;;
76351;SDS011;65179;47.786;19.138;2023-04-01T01:50:58;3.45;;;1.15;;
76351;SDS011;65179;47.786;19.138;2023-04-01T01:53:24;3.12;;;1.27;;
76351;SDS011;65179;47.786;19.138;2023-04-01T01:55:50;3.60;;;1.20;;
76351;SDS011;65179;47.786;19.138;2023-04-01T01:58:21;5.82;;;1.12;;
76351;SDS011;65179;47.786;19.138;2023-04-01T02:00:51;4.40;;;1.20;;
76351;SDS011;65179;47.786;19.138;2023-04-01T02:03:21;4.55;;;1.20;;
76351;SDS011;65179;47.786;19.138;2023-04-01T02:05:51;3.20;;;1.10;;
76351;SDS011;65179;47.786;19.138;2023-04-01T02:08:25;4.50;;;1.02;;
76351;SDS011;65179;47.786;19.138;2023-04-01T02:10:57;3.25;;;1.00;;
76351;SDS011;65179;47.786;19.138;2023-04-01T02:13:38;3.97;;;1.10;;
76351;SDS011;65179;47.786;19.138;2023-04-01T02:16:15;5.18;;;1.30;;
76351;SDS011;65179;47.786;19.138;2023-04-01T02:18:48;3.00;;;0.93;;
76351;SDS011;65179;47.786;19.138;2023-04-01T02:21:18;3.90;;;1.12;;
76351;SDS011;65179;47.786;19.138;2023-04-01T02:23:46;3.40;;;1.05;;
76351;SDS011;65179;47.786;19.138;2023-04-01T02:26:12;3.62;;;1.20;;
76351;SDS011;65179;47.786;19.138;2023-04-01T02:28:39;4.50;;;1.10;;
76351;SDS011;65179;47.786;19.138;2023-04-01T02:31:08;4.22;;;1.30;;
76351;SDS011;65179;47.786;19.138;2023-04-01T02:33:36;3.65;;;1.30;;
76351;SDS011;65179;47.786;19.138;2023-04-01T02:36:03;4.05;;;1.02;;
76351;SDS011;65179;47.786;19.138;2023-04-01T02:38:29;5.20;;;1.20;;
76351;SDS011;65179;47.786;19.138;2023-04-01T02:40:59;3.78;;;1.45;;
76351;SDS011;65179;47.786;19.138;2023-04-01T02:43:27;4.55;;;1.20;;
76351;SDS011;65179;47.786;19.138;2023-04-01T02:45:53;3.83;;;1.20;;
76351;SDS011;65179;47.786;19.138;2023-04-01T02:48:19;3.83;;;1.20;;
76351;SDS011;65179;47.786;19.138;2023-04-01T02:50:45;3.83;;;1.10;;
76351;SDS011;65179;47.786;19.138;2023-04-01T02:53:10;3.22;;;1.10;;
76351;SDS011;65179;47.786;19.138;2023-04-01T02:55:37;3.22;;;0.98;;
76351;SDS011;65179;47.786;19.138;2023-04-01T02:58:03;3.30;;;1.02;;
76351;SDS011;65179;47.786;19.138;2023-04-01T03:00:28;3.70;;;1.17;;
76351;SDS011;65179;47.786;19.138;2023-04-01T03:02:54;3.53;;;1.20;;
76351;SDS011;65179;47.786;19.138;2023-04-01T03:05:20;2.87;;;1.25;;
76351;SDS011;65179;47.786;19.138;2023-04-01T03:07:45;4.00;;;1.20;;
76351;SDS011;65179;47.786;19.138;2023-04-01T03:10:11;3.70;;;1.33;;
76351;SDS011;65179;47.786;19.138;2023-04-01T03:12:37;4.17;;;1.53;;
76351;SDS011;65179;47.786;19.138;2023-04-01T03:15:02;4.22;;;1.60;;
76351;SDS011;65179;47.786;19.138;2023-04-01T03:17:28;4.55;;;1.30;;
76351;SDS011;65179;47.786;19.138;2023-04-01T03:19:54;4.65;;;1.50;;
76351;SDS011;65179;47.786;19.138;2023-04-01T03:22:19;4.60;;;1.47;;
76351;SDS011;65179;47.786;19.138;2023-04-01T03:24:46;4.05;;;1.33;;
76351;SDS011;65179;47.786;19.138;2023-04-01T03:27:13;4.07;;;1.50;;
76351;SDS011;65179;47.786;19.138;2023-04-01T03:29:38;3.10;;;1.30;;
76351;SDS011;65179;47.786;19.138;2023-04-01T03:32:04;3.73;;;1.30;;
76351;SDS011;65179;47.786;19.138;2023-04-01T03:34:30;3.00;;;1.10;;
76351;SDS011;65179;47.786;19.138;2023-04-01T03:36:55;3.90;;;1.30;;
76351;SDS011;65179;47.786;19.138;2023-04-01T03:39:21;3.83;;;1.20;;
76351;SDS011;65179;47.786;19.138;2023-04-01T03:41:47;5.43;;;1.30;;
76351;SDS011;65179;47.786;19.138;2023-04-01T03:44:12;4.10;;;1.30;;
76351;SDS011;65179;47.786;19.138;2023-04-01T03:46:39;5.87;;;1.30;;
76351;SDS011;65179;47.786;19.138;2023-04-01T03:49:08;3.77;;;1.70;;
76351;SDS011;65179;47.786;19.138;2023-04-01T03:51:38;5.18;;;1.40;;
76351;SDS011;65179;47.786;19.138;2023-04-01T03:54:04;4.80;;;1.40;;
76351;SDS011;65179;47.786;19.138;2023-04-01T03:56:30;4.65;;;1.50;;
76351;SDS011;65179;47.786;19.138;2023-04-01T03:58:56;3.70;;;1.47;;
76351;SDS011;65179;47.786;19.138;2023-04-01T04:01:22;3.73;;;1.30;;
76351;SDS011;65179;47.786;19.138;2023-04-01T04:03:48;3.55;;;1.33;;
76351;SDS011;65179;47.786;19.138;2023-04-01T04:06:15;3.70;;;1.50;;
76351;SDS011;65179;47.786;19.138;2023-04-01T04:08:41;6.27;;;1.20;;
76351;SDS011;65179;47.786;19.138;2023-04-01T04:11:07;3.60;;;1.10;;
76351;SDS011;65179;47.786;19.138;2023-04-01T04:13:32;3.87;;;1.40;;
76351;SDS011;65179;47.786;19.138;2023-04-01T04:15:58;4.77;;;1.47;;
76351;SDS011;65179;47.786;19.138;2023-04-01T04:18:23;3.47;;;1.30;;
76351;SDS011;65179;47.786;19.138;2023-04-01T04:20:49;3.03;;;1.20;;
76351;SDS011;65179;47.786;19.138;2023-04-01T04:23:16;7.85;;;1.35;;
76351;SDS011;65179;47.786;19.138;2023-04-01T04:25:52;3.70;;;1.23;;
76351;SDS011;65179;47.786;19.138;2023-04-01T04:28:19;6.10;;;1.20;;
76351;SDS011;65179;47.786;19.138;2023-04-01T04:30:44;2.95;;;1.20;;
76351;SDS011;65179;47.786;19.138;2023-04-01T04:33:10;3.43;;;1.10;;
76351;SDS011;65179;47.786;19.138;2023-04-01T04:35:35;3.60;;;1.30;;
76351;SDS011;65179;47.786;19.138;2023-04-01T04:38:00;3.50;;;1.20;;
76351;SDS011;65179;47.786;19.138;2023-04-01T04:40:26;5.95;;;1.37;;
76351;SDS011;65179;47.786;19.138;2023-04-01T04:42:51;3.47;;;1.10;;
76351;SDS011;65179;47.786;19.138;2023-04-01T04:45:17;3.50;;;1.37;;
76351;SDS011;65179;47.786;19.138;2023-04-01T04:47:42;3.90;;;1.30;;
76351;SDS011;65179;47.786;19.138;2023-04-01T04:50:07;4.00;;;1.45;;
76351;SDS011;65179;47.786;19.138;2023-04-01T04:52:33;3.70;;;1.40;;
76351;SDS011;65179;47.786;19.138;2023-04-01T04:54:58;4.07;;;1.50;;
76351;SDS011;65179;47.786;19.138;2023-04-01T04:57:24;4.53;;;1.67;;
76351;SDS011;65179;47.786;19.138;2023-04-01T04:59:49;3.87;;;1.70;;
76351;SDS011;65179;47.786;19.138;2023-04-01T05:02:15;5.30;;;1.60;;
76351;SDS011;65179;47.786;19.138;2023-04-01T05:04:40;4.73;;;1.90;;
76351;SDS011;65179;47.786;19.138;2023-04-01T05:07:06;6.70;;;1.55;;
76351;SDS011;65179;47.786;19.138;2023-04-01T05:09:31;4.57;;;1.67;;
76351;SDS011;65179;47.786;19.138;2023-04-01T05:11:58;5.47;;;1.48;;
76351;SDS011;65179;47.786;19.138;2023-04-01T05:14:23;4.22;;;1.25;;
76351;SDS011;65179;47.786;19.138;2023-04-01T05:16:49;5.27;;;1.40;;
76351;SDS011;65179;47.786;19.138;2023-04-01T05:19:15;5.55;;;1.90;;
76351;SDS011;65179;47.786;19.138;2023-04-01T05:21:40;4.90;;;1.90;;
76351;SDS011;65179;47.786;19.138;2023-04-01T05:24:09;3.87;;;1.20;;
76351;SDS011;65179;47.786;19.138;2023-04-01T05:26:35;4.62;;;1.52;;
76351;SDS011;65179;47.786;19.138;2023-04-01T05:29:01;5.70;;;1.40;;
76351;SDS011;65179;47.786;19.138;2023-04-01T05:31:27;4.20;;;1.50;;
76351;SDS011;65179;47.786;19.138;2023-04-01T05:33:53;5.00;;;1.60;;
76351;SDS011;65179;47.786;19.138;2023-04-01T05:36:19;4.60;;;1.50;;
76351;SDS011;65179;47.786;19.138;2023-04-01T05:38:44;6.20;;;1.50;;
76351;SDS011;65179;47.786;19.138;2023-04-01T05:41:13;3.83;;;1.37;;
76351;SDS011;65179;47.786;19.138;2023-04-01T05:43:40;4.13;;;1.50;;
76351;SDS011;65179;47.786;19.138;2023-04-01T05:46:06;4.87;;;1.50;;
76351;SDS011;65179;47.786;19.138;2023-04-01T05:48:33;4.87;;;1.50;;
76351;SDS011;65179;47.786;19.138;2023-04-01T05:51:00;5.78;;;1.80;;
76351;SDS011;65179;47.786;19.138;2023-04-01T05:53:25;5.07;;;1.58;;
76351;SDS011;65179;47.786;19.138;2023-04-01T05:55:51;4.00;;;1.40;;
76351;SDS011;65179;47.786;19.138;2023-04-01T05:58:16;4.62;;;1.60;;
76351;SDS011;65179;47.786;19.138;2023-04-01T06:00:42;4.97;;;1.47;;
76351;SDS011;65179;47.786;19.138;2023-04-01T06:03:07;3.93;;;1.33;;
76351;SDS011;65179;47.786;19.138;2023-04-01T06:05:42;3.83;;;1.12;;
76351;SDS011;65179;47.786;19.138;2023-04-01T06:08:12;4.93;;;1.40;;
76351;SDS011;65179;47.786;19.138;2023-04-01T06:24:34;4.87;;;1.30;;
76351;SDS011;65179;47.786;19.138;2023-04-01T06:27:19;4.78;;;1.30;;
76351;SDS011;65179;47.786;19.138;2023-04-01T06:32:30;3.40;;;1.20;;
76351;SDS011;65179;47.786;19.138;2023-04-01T06:40:41;5.62;;;1.52;;
76351;SDS011;65179;47.786;19.138;2023-04-01T06:45:50;4.15;;;1.35;;
76351;SDS011;65179;47.786;19.138;2023-04-01T06:53:47;4.85;;;1.42;;
76351;SDS011;65179;47.786;19.138;2023-04-01T06:56:15;5.10;;;1.35;;
76351;SDS011;65179;47.786;19.138;2023-04-01T06:59:05;4.68;;;1.27;;
76351;SDS011;65179;47.786;19.138;2023-04-01T07:01:43;8.68;;;1.20;;
76351;SDS011;65179;47.786;19.138;2023-04-01T07:10:02;3.75;;;1.50;;
76351;SDS011;65179;47.786;19.138;2023-04-01T07:14:56;3.70;;;1.30;;
76351;SDS011;65179;47.786;19.138;2023-04-01T07:17:33;4.37;;;1.20;;
76351;SDS011;65179;47.786;19.138;2023-04-01T07:20:03;4.95;;;1.10;;
76351;SDS011;65179;47.786;19.138;2023-04-01T07:22:40;5.00;;;1.13;;
76351;SDS011;65179;47.786;19.138;2023-04-01T07:27:37;4.37;;;1.25;;
76351;SDS011;65179;47.786;19.138;2023-04-01T07:30:06;4.27;;;1.20;;
76351;SDS011;65179;47.786;19.138;2023-04-01T07:32:44;4.03;;;1.20;;
76351;SDS011;65179;47.786;19.138;2023-04-01T07:40:45;4.23;;;1.20;;
76351;SDS011;65179;47.786;19.138;2023-04-01T07:52:06;4.55;;;1.00;;
76351;SDS011;65179;47.786;19.138;2023-04-01T07:57:23;2.70;;;0.68;;
76351;SDS011;65179;47.786;19.138;2023-04-01T08:00:09;3.53;;;0.80;;
76351;SDS011;65179;47.786;19.138;2023-04-01T08:03:00;5.45;;;0.90;;
76351;SDS011;65179;47.786;19.138;2023-04-01T08:10:57;5.35;;;0.95;;
76351;SDS011;65179;47.786;19.138;2023-04-01T08:16:25;3.65;;;0.80;;
76351;SDS011;65179;47.786;19.138;2023-04-01T08:21:53;4.30;;;1.03;;
76351;SDS011;65179;47.786;19.138;2023-04-01T08:24:42;4.30;;;0.90;;
76351;SDS011;65179;47.786;19.138;2023-04-01T08:27:11;3.65;;;1.15;;
76351;SDS011;65179;47.786;19.138;2023-04-01T08:30:04;3.33;;;1.10;;
76351;SDS011;65179;47.786;19.138;2023-04-01T08:32:42;4.18;;;1.10;;
76351;SDS011;65179;47.786;19.138;2023-04-01T08:35:31;3.50;;;1.00;;
76351;SDS011;65179;47.786;19.138;2023-04-01T08:38:05;4.05;;;1.33;;
76351;SDS011;65179;47.786;19.138;2023-04-01T08:43:46;6.25;;;1.65;;
76351;SDS011;65179;47.786;19.138;2023-04-01T08:55:00;4.20;;;1.37;;
76351;SDS011;65179;47.786;19.138;2023-04-01T08:57:45;5.10;;;1.10;;
76351;SDS011;65179;47.786;19.138;2023-04-01T09:00:33;5.07;;;1.33;;
76351;SDS011;65179;47.786;19.138;2023-04-01T09:08:42;3.65;;;0.80;;
76351;SDS011;65179;47.786;19.138;2023-04-01T09:38:22;4.90;;;1.00;;
76351;SDS011;65179;47.786;19.138;2023-04-01T09:43:26;3.90;;;0.90;;
76351;SDS011;65179;47.786;19.138;2023-04-01T09:52:24;3.78;;;1.17;;
76351;SDS011;65179;47.786;19.138;2023-04-01T10:00:49;3.17;;;0.80;;
76351;SDS011;65179;47.786;19.138;2023-04-01T10:12:39;3.10;;;0.97;;
76351;SDS011;65179;47.786;19.138;2023-04-01T10:15:46;5.05;;;1.40;;
76351;SDS011;65179;47.786;19.138;2023-04-01T10:56:56;4.07;;;1.12;;
76351;SDS011;65179;47.786;19.138;2023-04-01T11:16:30;4.28;;;0.90;;
76351;SDS011;65179;47.786;19.138;2023-04-01T11:22:15;4.40;;;1.10;;
76351;SDS011;65179;47.786;19.138;2023-04-01T11:40:31;4.75;;;0.75;;
76351;SDS011;65179;47.786;19.138;2023-04-01T11:46:07;3.67;;;0.90;;
76351;SDS011;65179;47.786;19.138;2023-04-01T11:54:43;9.23;;;1.17;;
76351;SDS011;65179;47.786;19.138;2023-04-01T12:00:50;4.15;;;0.95;;
76351;SDS011;65179;47.786;19.138;2023-04-01T12:06:30;3.93;;;0.80;;
76351;SDS011;65179;47.786;19.138;2023-04-01T12:12:32;3.87;;;0.90;;
76351;SDS011;65179;47.786;19.138;2023-04-01T12:15:28;3.97;;;1.00;;
76351;SDS011;65179;47.786;19.138;2023-04-01T12:37:13;4.62;;;1.10;;
76351;SDS011;65179;47.786;19.138;2023-04-01T12:42:41;4.05;;;0.77;;
76351;SDS011;65179;47.786;19.138;2023-04-01T12:53:32;3.37;;;0.90;;
76351;SDS011;65179;47.786;19.138;2023-04-01T12:56:02;3.00;;;0.70;;
76351;SDS011;65179;47.786;19.138;2023-04-01T13:28:28;3.03;;;0.87;;
76351;SDS011;65179;47.786;19.138;2023-04-01T13:33:54;3.75;;;0.80;;
76351;SDS011;65179;47.786;19.138;2023-04-01T13:39:33;3.40;;;0.75;;
76351;SDS011;65179;47.786;19.138;2023-04-01T13:42:18;2.93;;;0.63;;
76351;SDS011;65179;47.786;19.138;2023-04-01T13:53:10;3.33;;;0.80;;
76351;SDS011;65179;47.786;19.138;2023-04-01T14:12:21;3.28;;;0.62;;
76351;SDS011;65179;47.786;19.138;2023-04-01T14:15:07;2.90;;;0.50;;
76351;SDS011;65179;47.786;19.138;2023-04-01T14:21:02;3.50;;;0.98;;
76351;SDS011;65179;47.786;19.138;2023-04-01T14:28:43;4.07;;;0.97;;
76351;SDS011;65179;47.786;19.138;2023-04-01T14:49:02;4.80;;;1.00;;
76351;SDS011;65179;47.786;19.138;2023-04-01T14:51:39;4.35;;;1.12;;
76351;SDS011;65179;47.786;19.138;2023-04-01T14:57:30;4.53;;;0.90;;
76351;SDS011;65179;47.786;19.138;2023-04-01T14:59:51;3.42;;;0.70;;
76351;SDS011;65179;47.786;19.138;2023-04-01T15:04:58;5.70;;;1.20;;
76351;SDS011;65179;47.786;19.138;2023-04-01T15:24:30;2.40;;;0.70;;
76351;SDS011;65179;47.786;19.138;2023-04-01T15:40:49;3.85;;;1.10;;
76351;SDS011;65179;47.786;19.138;2023-04-01T15:43:30;4.43;;;1.20;;
76351;SDS011;65179;47.786;19.138;2023-04-01T16:04:54;3.65;;;1.30;;
76351;SDS011;65179;47.786;19.138;2023-04-01T16:23:51;4.63;;;1.50;;
76351;SDS011;65179;47.786;19.138;2023-04-01T16:34:27;4.07;;;1.12;;
76351;SDS011;65179;47.786;19.138;2023-04-01T16:37:07;3.87;;;1.37;;
76351;SDS011;65179;47.786;19.138;2023-04-01T16:39:43;4.07;;;1.20;;
76351;SDS011;65179;47.786;19.138;2023-04-01T16:47:49;4.85;;;1.60;;
76351;SDS011;65179;47.786;19.138;2023-04-01T16:58:34;5.25;;;1.77;;
76351;SDS011;65179;47.786;19.138;2023-04-01T17:01:12;4.85;;;2.03;;
76351;SDS011;65179;47.786;19.138;2023-04-01T17:03:52;4.68;;;1.77;;
76351;SDS011;65179;47.786;19.138;2023-04-01T17:06:39;5.75;;;1.67;;
76351;SDS011;65179;47.786;19.138;2023-04-01T17:20:58;5.12;;;1.90;;
76351;SDS011;65179;47.786;19.138;2023-04-01T17:32:06;5.97;;;2.75;;
76351;SDS011;65179;47.786;19.138;2023-04-01T17:34:57;5.60;;;2.40;;
76351;SDS011;65179;47.786;19.138;2023-04-01T17:45:47;4.62;;;1.45;;
76351;SDS011;65179;47.786;19.138;2023-04-01T17:57:53;5.62;;;1.50;;
76351;SDS011;65179;47.786;19.138;2023-04-01T18:09:43;5.37;;;2.00;;
76351;SDS011;65179;47.786;19.138;2023-04-01T18:18:17;4.87;;;2.08;;
76351;SDS011;65179;47.786;19.138;2023-04-01T18:21:46;4.35;;;1.60;;
76351;SDS011;65179;47.786;19.138;2023-04-01T18:24:19;4.25;;;1.42;;
76351;SDS011;65179;47.786;19.138;2023-04-01T18:29:35;6.07;;;1.73;;
76351;SDS011;65179;47.786;19.138;2023-04-01T18:32:37;6.40;;;2.00;;
76351;SDS011;65179;47.786;19.138;2023-04-01T18:35:17;6.32;;;2.10;;
76351;SDS011;65179;47.786;19.138;2023-04-01T18:37:54;6.28;;;1.70;;
76351;SDS011;65179;47.786;19.138;2023-04-01T18:40:34;5.15;;;1.70;;
76351;SDS011;65179;47.786;19.138;2023-04-01T18:43:33;6.60;;;1.75;;
76351;SDS011;65179;47.786;19.138;2023-04-01T18:47:11;6.18;;;1.70;;
76351;SDS011;65179;47.786;19.138;2023-04-01T18:49:30;5.53;;;1.77;;
76351;SDS011;65179;47.786;19.138;2023-04-01T18:57:46;5.43;;;2.25;;
76351;SDS011;65179;47.786;19.138;2023-04-01T19:01:04;7.35;;;2.55;;
76351;SDS011;65179;47.786;19.138;2023-04-01T19:05:40;6.33;;;2.50;;
76351;SDS011;65179;47.786;19.138;2023-04-01T19:21:57;6.55;;;2.20;;
76351;SDS011;65179;47.786;19.138;2023-04-01T19:27:34;4.37;;;1.77;;
76351;SDS011;65179;47.786;19.138;2023-04-01T19:30:18;5.05;;;2.10;;
76351;SDS011;65179;47.786;19.138;2023-04-01T19:35:33;7.00;;;1.77;;
76351;SDS011;65179;47.786;19.138;2023-04-01T19:38:31;6.43;;;1.80;;
76351;SDS011;65179;47.786;19.138;2023-04-01T19:41:09;4.87;;;1.85;;
76351;SDS011;65179;47.786;19.138;2023-04-01T19:43:49;6.07;;;2.12;;
76351;SDS011;65179;47.786;19.138;2023-04-01T19:51:34;6.90;;;1.80;;
76351;SDS011;65179;47.786;19.138;2023-04-01T19:59:42;5.93;;;1.60;;
76351;SDS011;65179;47.786;19.138;2023-04-01T20:04:56;6.22;;;1.75;;
76351;SDS011;65179;47.786;19.138;2023-04-01T20:07:41;5.12;;;1.90;;
76351;SDS011;65179;47.786;19.138;2023-04-01T20:15:31;5.18;;;1.87;;
76351;SDS011;65179;47.786;19.138;2023-04-01T20:18:12;5.30;;;1.80;;
76351;SDS011;65179;47.786;19.138;2023-04-01T20:20:40;5.50;;;2.00;;
76351;SDS011;65179;47.786;19.138;2023-04-01T20:23:21;6.15;;;1.80;;
76351;SDS011;65179;47.786;19.138;2023-04-01T20:26:04;4.60;;;1.67;;
76351;SDS011;65179;47.786;19.138;2023-04-01T20:31:12;4.80;;;1.90;;
76351;SDS011;65179;47.786;19.138;2023-04-01T20:37:02;5.22;;;2.47;;
76351;SDS011;65179;47.786;19.138;2023-04-01T20:45:10;10.88;;;3.58;;
76351;SDS011;65179;47.786;19.138;2023-04-01T21:07:14;7.43;;;2.77;;
76351;SDS011;65179;47.786;19.138;2023-04-01T21:29:51;5.65;;;2.10;;
76351;SDS011;65179;47.786;19.138;2023-04-01T21:48:24;6.10;;;2.33;;
76351;SDS011;65179;47.786;19.138;2023-04-01T21:53:38;7.10;;;2.37;;
76351;SDS011;65179;47.786;19.138;2023-04-01T22:09:31;5.30;;;2.10;;
76351;SDS011;65179;47.786;19.138;2023-04-01T22:12:15;5.82;;;2.47;;
76351;SDS011;65179;47.786;19.138;2023-04-01T22:17:35;6.50;;;2.60;;
76351;SDS011;65179;47.786;19.138;2023-04-01T22:26:09;6.87;;;2.58;;
76351;SDS011;65179;47.786;19.138;2023-04-01T22:29:07;6.40;;;2.62;;
76351;SDS011;65179;47.786;19.138;2023-04-01T22:31:47;5.82;;;2.17;;
76351;SDS011;65179;47.786;19.138;2023-04-01T22:37:18;9.57;;;2.55;;
76351;SDS011;65179;47.786;19.138;2023-04-01T22:40:00;4.70;;;1.90;;
76351;SDS011;65179;47.786;19.138;2023-04-01T22:42:45;6.53;;;2.12;;
76351;SDS011;65179;47.786;19.138;2023-04-01T22:48:22;5.93;;;2.55;;
76351;SDS011;65179;47.786;19.138;2023-04-01T22:51:07;6.75;;;2.42;;
76351;SDS011;65179;47.786;19.138;2023-04-01T22:56:21;5.57;;;2.25;;
76351;SDS011;65179;47.786;19.138;2023-04-01T23:01:32;6.25;;;2.40;;
76351;SDS011;65179;47.786;19.138;2023-04-01T23:04:05;7.07;;;2.45;;
76351;SDS011;65179;47.786;19.138;2023-04-01T23:06:33;5.82;;;2.40;;
76351;SDS011;65179;47.786;19.138;2023-04-01T23:16:46;6.03;;;2.50;;
76351;SDS011;65179;47.786;19.138;2023-04-01T23:38:14;5.85;;;2.22;;
76351;SDS011;65179;47.786;19.138;2023-04-01T23:40:41;5.82;;;2.42;;
76351;SDS011;65179;47.786;19.138;2023-04-01T23:43:13;5.90;;;2.40;;
76351;SDS011;65179;47.786;19.138;2023-04-01T23:45:45;5.65;;;2.42;;
76351;SDS011;65179;47.786;19.138;2023-04-01T23:48:12;8.70;;;2.40;;
76351;SDS011;65179;47.786;19.138;2023-04-01T23:50:41;6.78;;;2.40;;
76351;SDS011;65179;47.786;19.138;2023-04-01T23:53:11;5.70;;;2.30;;
76351;SDS011;65179;47.786;19.138;2023-04-01T23:55:43;5.57;;;2.30;;
